馬祖南竿航空站 - ATIS

METAR RCFG 120300Z 36011KT 9000 NSC 22/14 Q1020 NOSIG RMK 04010KT/R21 MAX WND 15KT/R03 01009KT/NJL A3014(H)=

站台狀態:Offline
最後更新:2019-11-12 11:15:01